createdAt,value
2019-02-11T00:02:08.001Z,50.23
2019-02-11T00:05:02.514Z,47.80
2019-02-11T00:07:57.036Z,47.83
2019-02-11T00:10:51.234Z,48.10
2019-02-11T00:13:45.438Z,45.93
2019-02-11T00:16:39.830Z,47.87
2019-02-11T00:19:34.094Z,46.47
2019-02-11T00:22:28.491Z,46.23
2019-02-11T00:25:22.814Z,45.57
2019-02-11T00:28:17.376Z,49.17
2019-02-11T00:31:11.572Z,56.93
2019-02-11T00:34:06.097Z,49.93
2019-02-11T00:37:00.526Z,54.87
2019-02-11T00:39:55.158Z,59.53
2019-02-11T00:42:49.390Z,57.13
2019-02-11T00:45:43.491Z,60.37
2019-02-11T00:48:37.576Z,58.50
2019-02-11T00:51:32.172Z,50.33
2019-02-11T00:54:26.331Z,65.00
2019-02-11T00:57:21.091Z,64.00
2019-02-11T01:00:17.022Z,79.17
2019-02-11T01:03:11.404Z,73.27
2019-02-11T01:06:05.900Z,79.17
2019-02-11T01:09:00.481Z,71.87
2019-02-11T01:11:56.180Z,63.37
2019-02-11T01:14:50.772Z,89.30
2019-02-11T01:17:45.969Z,70.77
2019-02-11T01:20:40.225Z,82.57
2019-02-11T01:23:34.821Z,80.03
2019-02-11T01:26:28.950Z,96.03
2019-02-11T01:29:23.382Z,92.37
2019-02-11T01:32:18.298Z,73.30
2019-02-11T01:35:13.002Z,85.17
2019-02-11T01:38:07.627Z,84.10
2019-02-11T01:41:02.026Z,92.47
2019-02-11T01:43:56.760Z,76.13
2019-02-11T01:46:51.461Z,66.63
2019-02-11T01:49:45.845Z,73.10
2019-02-11T01:52:40.022Z,68.33
2019-02-11T01:55:34.500Z,79.07
2019-02-11T01:58:29.114Z,72.07
2019-02-11T02:01:23.606Z,71.27
2019-02-11T02:04:19.269Z,73.53
2019-02-11T02:07:13.723Z,71.90
2019-02-11T02:10:08.829Z,70.13
2019-02-11T02:13:03.271Z,69.33
2019-02-11T02:15:57.366Z,66.87
2019-02-11T02:18:51.555Z,63.90
2019-02-11T02:21:46.236Z,64.37
2019-02-11T02:24:40.696Z,62.23
2019-02-11T02:27:35.256Z,60.67
2019-02-11T02:30:29.891Z,61.87
2019-02-11T02:33:26.318Z,58.03
2019-02-11T02:36:20.023Z,53.77
2019-02-11T02:39:08.760Z,58.17
2019-02-11T02:42:02.896Z,59.60
2019-02-11T02:44:57.390Z,54.40
2019-02-11T02:47:52.081Z,56.93
2019-02-11T02:50:46.497Z,55.43
2019-02-11T02:53:40.977Z,51.80
2019-02-11T02:56:35.223Z,52.10
2019-02-11T02:59:29.671Z,56.27
2019-02-11T03:02:24.756Z,53.53
2019-02-11T03:05:20.311Z,47.40
2019-02-11T03:08:14.667Z,47.67
2019-02-11T03:11:09.176Z,46.17
2019-02-11T03:14:05.761Z,43.90
2019-02-11T03:16:59.775Z,45.20
2019-02-11T03:19:54.265Z,44.47
2019-02-11T03:22:48.465Z,39.80
2019-02-11T03:25:42.713Z,37.77
2019-02-11T03:28:36.938Z,39.60
2019-02-11T03:31:31.269Z,38.50
2019-02-11T03:34:25.608Z,41.60
2019-02-11T03:37:20.170Z,36.27
2019-02-11T03:40:14.454Z,40.43
2019-02-11T03:43:09.106Z,42.10
2019-02-11T03:46:03.807Z,44.50
2019-02-11T03:48:58.692Z,42.57
2019-02-11T03:51:53.152Z,45.43
2019-02-11T03:54:47.512Z,36.40
2019-02-11T03:57:41.755Z,34.33
2019-02-11T04:00:36.134Z,42.10
2019-02-11T04:03:30.631Z,40.70
2019-02-11T04:06:24.758Z,42.03
2019-02-11T04:09:19.800Z,34.47
2019-02-11T04:12:14.183Z,33.70
2019-02-11T04:15:09.107Z,37.97
2019-02-11T04:18:03.557Z,38.63
2019-02-11T04:20:57.933Z,35.50
2019-02-11T04:23:52.280Z,38.83
2019-02-11T04:26:47.855Z,40.37
2019-02-11T04:29:46.903Z,33.07
2019-02-11T04:32:41.342Z,37.63
2019-02-11T04:35:35.764Z,38.80
2019-02-11T04:38:30.312Z,35.67
2019-02-11T04:41:24.997Z,36.93
2019-02-11T04:44:19.430Z,33.10
2019-02-11T04:47:16.653Z,34.73
2019-02-11T04:53:44.975Z,30.13
2019-02-11T04:56:39.651Z,32.57
2019-02-11T04:59:34.720Z,30.63
2019-02-11T05:02:31.154Z,28.77
2019-02-11T05:05:26.064Z,27.27
2019-02-11T05:08:20.520Z,28.40
2019-02-11T05:11:15.370Z,29.60
2019-02-11T05:14:10.773Z,27.23
2019-02-11T05:17:21.474Z,27.10
2019-02-11T05:20:15.848Z,27.93
2019-02-11T05:23:30.000Z,28.70
2019-02-11T05:26:26.707Z,28.03
2019-02-11T05:29:25.530Z,25.73
2019-02-11T05:32:21.083Z,25.10
2019-02-11T05:35:17.560Z,23.80
2019-02-11T05:38:12.263Z,20.80
2019-02-11T05:41:13.136Z,21.03
2019-02-11T05:44:11.338Z,20.97
2019-02-11T05:47:06.074Z,34.60
2019-02-11T05:50:03.492Z,21.03
2019-02-11T05:53:01.418Z,18.57
2019-02-11T05:55:55.989Z,17.87
2019-02-11T05:58:52.318Z,17.43
2019-02-11T06:01:47.952Z,19.80
2019-02-11T06:04:43.166Z,19.40
2019-02-11T06:07:41.514Z,19.40
2019-02-11T06:10:36.710Z,19.67
2019-02-11T06:13:31.889Z,19.57
2019-02-11T06:16:27.335Z,18.87
2019-02-11T06:19:29.366Z,17.27
2019-02-11T06:22:26.697Z,18.47
2019-02-11T06:25:36.124Z,17.90
2019-02-11T06:28:39.870Z,16.17
2019-02-11T06:31:37.680Z,15.57
2019-02-11T06:37:31.677Z,15.03
2019-02-11T06:40:29.967Z,16.67
2019-02-11T06:44:03.236Z,15.80
2019-02-11T06:47:13.422Z,14.13
2019-02-11T06:58:26.472Z,14.93
2019-02-11T07:01:49.146Z,15.03
2019-02-11T07:04:50.987Z,15.90
2019-02-11T07:07:45.942Z,15.00
2019-02-11T07:10:41.910Z,14.40
2019-02-11T07:13:39.490Z,15.40
2019-02-11T07:16:37.153Z,14.80
2019-02-11T07:19:42.282Z,14.67
2019-02-11T07:22:43.394Z,14.30
2019-02-11T07:25:41.044Z,14.27
2019-02-11T07:28:38.781Z,14.90
2019-02-11T07:31:47.436Z,14.47
2019-02-11T07:34:49.526Z,15.10
2019-02-11T07:37:44.870Z,14.57
2019-02-11T07:40:39.628Z,14.43
2019-02-11T07:43:45.478Z,14.47
2019-02-11T07:46:59.545Z,15.27
2019-02-11T07:49:55.718Z,14.27
2019-02-11T07:52:54.040Z,13.87
2019-02-11T07:55:44.084Z,14.93
2019-02-11T07:58:39.219Z,14.07
2019-02-11T08:01:36.233Z,14.43
2019-02-11T08:04:39.738Z,14.43
2019-02-11T08:07:38.856Z,13.77
2019-02-11T08:10:34.913Z,15.03
2019-02-11T08:13:49.174Z,15.83
2019-02-11T08:16:43.270Z,14.60
2019-02-11T08:19:42.001Z,14.83
2019-02-11T08:22:40.483Z,14.77
2019-02-11T08:25:37.108Z,14.07
2019-02-11T08:28:33.719Z,15.80
2019-02-11T08:31:29.761Z,18.47
2019-02-11T08:34:26.568Z,16.73
2019-02-11T08:37:22.387Z,19.73
2019-02-11T08:40:17.636Z,18.83
2019-02-11T08:43:20.099Z,19.13
2019-02-11T08:46:16.815Z,20.13
2019-02-11T08:49:12.531Z,18.60
2019-02-11T08:52:12.150Z,19.90
2019-02-11T08:55:41.722Z,20.90
2019-02-11T08:58:56.570Z,20.13
2019-02-11T09:02:12.618Z,20.43
2019-02-11T09:05:11.855Z,23.00
2019-02-11T09:08:07.815Z,21.97
2019-02-11T09:11:04.296Z,21.93
2019-02-11T09:14:02.292Z,22.63
2019-02-11T09:17:27.748Z,24.23
2019-02-11T09:20:25.159Z,23.30
2019-02-11T09:23:42.598Z,21.80
2019-02-11T09:26:37.389Z,24.83
2019-02-11T09:29:32.853Z,24.27
2019-02-11T09:32:27.410Z,22.50
2019-02-11T09:35:23.352Z,21.63
2019-02-11T09:38:22.420Z,21.47
2019-02-11T09:41:19.529Z,21.87
2019-02-11T09:45:19.975Z,22.60
2019-02-11T09:48:26.134Z,22.23
2019-02-11T09:51:27.273Z,22.10
2019-02-11T09:54:47.153Z,22.10
2019-02-11T09:57:42.622Z,19.87
2019-02-11T10:00:40.254Z,20.40
2019-02-11T10:03:36.564Z,16.33
2019-02-11T10:06:34.179Z,19.77
2019-02-11T10:09:33.522Z,18.47
2019-02-11T10:12:30.374Z,16.77
2019-02-11T10:15:26.532Z,18.07
2019-02-11T10:18:45.780Z,18.23
2019-02-11T10:21:48.989Z,17.10
2019-02-11T10:28:21.252Z,16.77
2019-02-11T10:31:16.525Z,17.60
2019-02-11T10:34:13.797Z,16.93
2019-02-11T10:37:10.625Z,15.23
2019-02-11T10:40:08.753Z,16.20
2019-02-11T10:43:05.968Z,14.33
2019-02-11T10:46:00.830Z,15.20
2019-02-11T10:48:59.192Z,14.67
2019-02-11T10:51:55.107Z,16.57
2019-02-11T10:54:53.306Z,14.90
2019-02-11T10:57:48.840Z,15.13
2019-02-11T11:00:44.690Z,15.17
2019-02-11T11:03:45.851Z,14.97
2019-02-11T11:13:30.368Z,16.47
2019-02-11T11:16:29.677Z,16.10
2019-02-11T11:19:21.224Z,15.80
2019-02-11T11:22:22.048Z,14.97
2019-02-11T11:25:23.695Z,15.07
2019-02-11T11:28:19.676Z,15.70
2019-02-11T11:31:14.775Z,15.53
2019-02-11T11:34:12.473Z,16.17
2019-02-11T11:37:07.165Z,15.97
2019-02-11T11:40:01.814Z,15.63
2019-02-11T11:46:00.723Z,14.80
2019-02-11T11:48:57.844Z,14.97
2019-02-11T11:51:49.478Z,15.30
2019-02-11T11:55:19.063Z,15.83
2019-02-11T12:01:50.348Z,16.27
2019-02-11T12:05:23.319Z,15.03
2019-02-11T12:13:26.354Z,18.90
2019-02-11T12:16:56.757Z,18.00
2019-02-11T12:20:19.010Z,18.83
2019-02-11T12:50:35.111Z,19.93
2019-02-11T12:58:12.545Z,18.50
2019-02-11T13:08:17.122Z,18.83
2019-02-11T13:12:11.522Z,17.97
2019-02-11T13:15:41.412Z,18.30
2019-02-11T13:18:13.703Z,17.93
2019-02-11T13:21:09.102Z,18.27
2019-02-11T13:24:04.888Z,20.87
2019-02-11T13:27:29.248Z,19.80
2019-02-11T13:30:39.188Z,21.60
2019-02-11T13:37:57.364Z,24.60
2019-02-11T13:40:52.166Z,28.07
2019-02-11T13:43:54.362Z,25.20
2019-02-11T13:46:47.839Z,27.80
2019-02-11T13:49:46.260Z,27.47
2019-02-11T13:52:38.165Z,27.60
2019-02-11T13:55:32.728Z,28.13
2019-02-11T13:58:30.379Z,25.37
2019-02-11T14:01:25.022Z,26.43
2019-02-11T14:04:27.899Z,26.57
2019-02-11T14:07:20.896Z,25.77
2019-02-11T14:10:16.659Z,25.17
2019-02-11T14:13:11.138Z,24.57
2019-02-11T14:16:06.081Z,25.60
2019-02-11T14:19:00.652Z,25.73
2019-02-11T14:21:55.243Z,26.63
2019-02-11T14:24:54.681Z,27.93
2019-02-11T14:27:49.241Z,25.27
2019-02-11T14:30:43.599Z,25.37
2019-02-11T14:33:38.146Z,24.87
2019-02-11T14:36:33.100Z,24.83
2019-02-11T14:39:28.973Z,25.03
2019-02-11T14:42:24.086Z,27.63
2019-02-11T14:45:19.895Z,26.13
2019-02-11T14:48:27.147Z,26.00
2019-02-11T14:51:20.090Z,27.90
2019-02-11T14:54:16.720Z,25.93
2019-02-11T14:57:11.818Z,28.70
2019-02-11T15:00:06.066Z,27.03
2019-02-11T15:03:01.244Z,27.83
2019-02-11T15:05:56.654Z,24.97
2019-02-11T15:08:51.494Z,27.67
2019-02-11T15:11:47.164Z,27.50
2019-02-11T15:14:45.790Z,27.67
2019-02-11T15:17:41.444Z,29.70
2019-02-11T15:20:35.943Z,29.23
2019-02-11T15:23:30.984Z,31.33
2019-02-11T15:26:26.014Z,29.70
2019-02-11T15:29:21.345Z,28.40
2019-02-11T15:32:16.585Z,32.30
2019-02-11T15:35:11.185Z,32.33
2019-02-11T15:38:07.445Z,29.97
2019-02-11T15:41:03.203Z,29.57
2019-02-11T15:43:58.037Z,28.97
2019-02-11T15:46:53.103Z,32.77
2019-02-11T15:49:48.267Z,30.53
2019-02-11T15:52:48.313Z,30.17
2019-02-11T15:55:43.443Z,31.17
2019-02-11T15:58:36.546Z,30.93
2019-02-11T16:01:32.234Z,29.07
2019-02-11T16:04:27.424Z,28.40
2019-02-11T16:07:22.054Z,28.37
2019-02-11T16:10:10.894Z,28.43
2019-02-11T16:13:05.315Z,31.73
2019-02-11T16:15:59.516Z,29.73
2019-02-11T16:18:54.999Z,27.60
2019-02-11T16:21:49.426Z,31.23
2019-02-11T16:24:43.689Z,27.33
2019-02-11T16:27:38.577Z,29.87
2019-02-11T16:30:32.857Z,28.03
2019-02-11T16:33:27.316Z,31.13
2019-02-11T16:36:21.533Z,27.80
2019-02-11T16:39:16.078Z,29.63
2019-02-11T16:42:10.428Z,29.40
2019-02-11T16:45:04.958Z,30.87
2019-02-11T16:48:01.222Z,29.60
2019-02-11T16:50:55.367Z,28.87
2019-02-11T16:53:48.321Z,30.10
2019-02-11T16:56:43.281Z,30.47
2019-02-11T16:59:37.667Z,27.17
2019-02-11T17:02:32.252Z,29.47
2019-02-11T17:05:26.485Z,29.67
2019-02-11T17:08:20.818Z,26.80
2019-02-11T17:11:15.401Z,29.07
2019-02-11T17:14:09.890Z,27.73
2019-02-11T17:17:04.759Z,30.27
2019-02-11T17:20:01.808Z,28.57
2019-02-11T17:25:49.457Z,28.10
2019-02-11T17:31:40.005Z,29.70
2019-02-11T17:34:36.648Z,27.40
2019-02-11T17:37:33.715Z,28.40
2019-02-11T17:40:39.598Z,28.17
2019-02-11T17:43:37.920Z,25.37
2019-02-11T17:46:31.992Z,27.57
2019-02-11T17:49:26.287Z,29.07
2019-02-11T17:52:20.495Z,28.43
2019-02-11T17:55:16.079Z,27.50
2019-02-11T17:58:10.934Z,28.10
2019-02-11T18:01:05.215Z,27.40
2019-02-11T18:03:59.408Z,30.37
2019-02-11T18:06:54.943Z,30.13
2019-02-11T18:09:50.518Z,27.60
2019-02-11T18:12:45.091Z,29.33
2019-02-11T18:15:39.671Z,28.83
2019-02-11T18:18:34.164Z,28.17
2019-02-11T18:21:28.832Z,26.70
2019-02-11T18:24:23.232Z,25.87
2019-02-11T18:27:17.389Z,26.63
2019-02-11T18:30:14.214Z,26.23
2019-02-11T18:33:09.253Z,25.57
2019-02-11T18:36:03.751Z,26.63
2019-02-11T18:38:58.129Z,25.67
2019-02-11T18:41:52.466Z,24.47
2019-02-11T18:44:47.094Z,26.77
2019-02-11T18:47:42.577Z,25.63
2019-02-11T18:50:37.156Z,25.90
2019-02-11T18:53:31.718Z,26.60
2019-02-11T18:56:25.858Z,28.30
2019-02-11T18:59:24.628Z,25.87
2019-02-11T19:02:16.241Z,27.37
2019-02-11T19:05:10.639Z,24.53
2019-02-11T19:08:04.902Z,25.47
2019-02-11T19:10:59.320Z,27.63
2019-02-11T19:13:53.668Z,26.90
2019-02-11T19:16:48.706Z,24.67
2019-02-11T19:19:43.556Z,25.47
2019-02-11T19:22:38.067Z,26.77
2019-02-11T19:25:32.548Z,23.83
2019-02-11T19:28:27.614Z,25.67
2019-02-11T19:31:22.048Z,24.80
2019-02-11T19:34:16.632Z,24.57
2019-02-11T19:37:10.844Z,24.80
2019-02-11T19:40:05.324Z,25.43
2019-02-11T19:42:59.934Z,25.27
2019-02-11T19:45:54.165Z,25.20
2019-02-11T19:48:48.551Z,25.10
2019-02-11T19:51:42.918Z,25.77
2019-02-11T19:54:38.452Z,24.13
2019-02-11T19:57:32.944Z,23.03
2019-02-11T20:00:27.387Z,23.63
2019-02-11T20:03:21.552Z,23.43
2019-02-11T20:06:16.035Z,24.00
2019-02-11T20:09:11.482Z,22.20
2019-02-11T20:12:05.981Z,23.47
2019-02-11T20:15:00.366Z,23.57
2019-02-11T20:17:54.828Z,22.67
2019-02-11T20:20:50.414Z,25.43
2019-02-11T20:23:44.854Z,22.33
2019-02-11T20:26:39.715Z,23.37
2019-02-11T20:29:34.200Z,23.57
2019-02-11T20:32:28.686Z,24.87
2019-02-11T20:35:23.235Z,23.93
2019-02-11T20:38:17.794Z,23.73
2019-02-11T20:41:12.199Z,24.63
2019-02-11T20:44:06.504Z,23.43
2019-02-11T20:47:00.765Z,26.73
2019-02-11T20:49:54.967Z,21.43
2019-02-11T20:52:49.502Z,22.40
2019-02-11T20:55:43.920Z,24.23
2019-02-11T20:58:38.417Z,22.53
2019-02-11T21:01:32.779Z,23.20
2019-02-11T21:04:27.181Z,23.27
2019-02-11T21:07:21.875Z,24.60
2019-02-11T21:10:17.754Z,21.27
2019-02-11T21:13:13.419Z,23.17
2019-02-11T21:16:07.816Z,24.87
2019-02-11T21:21:54.058Z,23.60
2019-02-11T21:24:48.603Z,25.37
2019-02-11T21:27:43.789Z,28.77
2019-02-11T21:30:38.238Z,26.53
2019-02-11T21:33:32.862Z,22.57
2019-02-11T21:36:27.598Z,29.17
2019-02-11T21:39:22.003Z,29.50
2019-02-11T21:42:16.398Z,32.27
2019-02-11T21:45:10.896Z,29.13
2019-02-11T21:48:05.059Z,34.00
2019-02-11T21:51:00.352Z,25.87
2019-02-11T21:53:54.548Z,34.27
2019-02-11T21:56:48.941Z,31.83
2019-02-11T21:59:43.494Z,30.17
2019-02-11T22:02:37.779Z,36.57
2019-02-11T22:05:32.309Z,30.87
2019-02-11T22:08:27.855Z,34.80
2019-02-11T22:11:22.038Z,37.63
2019-02-11T22:14:17.052Z,27.00
2019-02-11T22:17:11.618Z,27.37
2019-02-11T22:20:06.111Z,25.70
2019-02-11T22:23:00.415Z,26.93
2019-02-11T22:25:54.778Z,39.67
2019-02-11T22:28:49.267Z,40.03
2019-02-11T22:31:43.628Z,38.30
2019-02-11T22:34:38.056Z,38.00
2019-02-11T22:37:32.390Z,41.27
2019-02-11T22:40:26.826Z,45.43
2019-02-11T22:43:21.156Z,39.00
2019-02-11T22:46:15.979Z,38.53
2019-02-11T22:49:11.607Z,46.23
2019-02-11T22:52:06.961Z,34.80
2019-02-11T22:55:02.647Z,36.70
2019-02-11T22:57:57.068Z,45.13
2019-02-11T23:00:59.477Z,42.53
2019-02-11T23:03:54.246Z,44.30
2019-02-11T23:06:48.540Z,43.10
2019-02-11T23:09:42.830Z,42.87
2019-02-11T23:12:37.197Z,38.37
2019-02-11T23:15:31.340Z,38.07
2019-02-11T23:18:25.585Z,35.37
2019-02-11T23:21:20.184Z,37.40
2019-02-11T23:24:14.489Z,38.43
2019-02-11T23:27:09.013Z,38.93
2019-02-11T23:30:03.631Z,40.10
2019-02-11T23:32:59.235Z,38.90
2019-02-11T23:35:53.886Z,40.33
2019-02-11T23:38:48.555Z,38.50
2019-02-11T23:41:43.075Z,39.37
2019-02-11T23:44:37.387Z,36.03
2019-02-11T23:47:32.226Z,38.47
2019-02-11T23:50:26.606Z,38.70
2019-02-11T23:53:20.941Z,41.50
2019-02-11T23:56:15.318Z,42.93
2019-02-11T23:59:09.879Z,41.80
